Andesborg — PCLC — position and weather

sailwx.info

Track history (hours):
 
Tides and Currents Weather Stations Pressure Air Temp Water Temp Dewpoint Dewpoint Depression Visibility Wind Speed Wind Dir Waves Ship Positions

Andesborg

Last reported at 2017-Jun-20 22:22 UTC. Time now 2017-Jun-29 02:23 UTC.
Position S 30°13' E 031°49'.
Warning: this ship's position is 8 days out of date.

Length 143 m; draft 9.8 m.

Type: Ship. MMSI: 246797000.

Date/timePositionNaut miles runAvg speedWind from/ knotsBaromVisibWave heightAir tempDewpointWater temp
2017-Jun-20 22:22S 30°13' E 031°49'2 5.9
2017-Jun-20 21:58S 30°11' E 031°48'3 5.9
2017-Jun-20 21:30S 30°08' E 031°47'2 3.6
2017-Jun-20 21:00S 30°08' E 031°45'3 5.8
2017-Jun-20 20:30S 30°10' E 031°43'3 5.9
2017-Jun-20 20:00S 30°12' E 031°41'3 6.0
2017-Jun-20 19:30S 30°15' E 031°39'3 6.1
2017-Jun-20 19:00S 30°17' E 031°37'3 6.2
2017-Jun-20 18:30S 30°20' E 031°35'6 6.5
2017-Jun-20 17:31S 30°25' E 031°30'1 6.7
2017-Jun-20 17:23S 30°26' E 031°30'  
Track history (hours):
 
Tides and Currents Weather Stations Pressure Air Temp Water Temp Dewpoint Dewpoint Depression Visibility Wind Speed Wind Dir Waves Ship Positions

Andesborg

Last reported at 2017-Jun-20 22:22 UTC. Time now 2017-Jun-29 02:23 UTC.
Position S 30°13' E 031°49'.
Warning: this ship's position is 8 days out of date.

Length 143 m; draft 9.8 m.

Type: Ship. MMSI: 246797000.

Date/timePositionNaut miles runAvg speedWind from/ knotsBaromVisibWave heightAir tempDewpointWater temp
2017-Jun-20 22:22S 30°13' E 031°49'2 5.9
2017-Jun-20 21:58S 30°11' E 031°48'3 5.9
2017-Jun-20 21:30S 30°08' E 031°47'2 3.6
2017-Jun-20 21:00S 30°08' E 031°45'3 5.8
2017-Jun-20 20:30S 30°10' E 031°43'3 5.9
2017-Jun-20 20:00S 30°12' E 031°41'3 6.0
2017-Jun-20 19:30S 30°15' E 031°39'3 6.1
2017-Jun-20 19:00S 30°17' E 031°37'3 6.2
2017-Jun-20 18:30S 30°20' E 031°35'6 6.5
2017-Jun-20 17:31S 30°25' E 031°30'1 6.7
2017-Jun-20 17:23S 30°26' E 031°30'  

Dump ship's entire track history